• Join FlightAware (Why Join?)
  • Login
  • US Flag 
07:04AM EDT


 

Airport Tracker/Info


-or-


 

Live Flight TrackerFlight Track Log ✈ BYA373 ✈ 09-Jul-2013 ✈ KHYI - MMTO / TLC

Flight Track Log - Related Links

Times and Time Zones

All times are in EDT time to prevent confusion due to time zone crossing. See the BYA373 flight status page for this flight to view local times or setup timezone preferences in your user account.

Time Position Orientation Groundspeed Altitude Reporting Facility
EDT Latitude Longitude Course Direction KTS MPH feet Rate Location/Type
02:08AM 29.9844 -97.9014 249° West 182 209 5,600  Level Houston Center
02:09AM 29.9911 -97.9597 278° West 175 201 7,100 1,260 Climbing Houston Center
02:10AM 29.9808 -98.0117 257° West 170 196 8,300 1,260 Climbing Houston Center
02:11AM 29.9547 -98.0617 239° Southwest 171 197 9,700 1,200 Climbing Houston Center
02:12AM 29.9247 -98.1050 231° Southwest 173 199 10,800 1,080 Climbing Houston Center
02:13AM 29.7170 -98.2656 249° West  Level FlightAware Approximate
02:13AM 29.8961 -98.1517 235° Southwest 177 204 11,900  Level Houston Center
02:14AM 29.8661 -98.1953 232° Southwest 173 199 12,900 1,020 Climbing Houston Center
02:15AM 29.8294 -98.2281 218° Southwest 166 191 14,000 960 Climbing Houston Center
02:16AM 29.7914 -98.2603 216° Southwest 169 194 14,900 840 Climbing Houston Center
02:17AM 29.7539 -98.2944 218° Southwest 172 198 15,700 720 Climbing Houston Center
02:18AM 29.7158 -98.3294 219° Southwest 176 203 16,400 720 Climbing Houston Center
02:19AM 29.6750 -98.3600 213° Southwest 177 204 17,200 600 Climbing Houston Center
02:20AM 29.6322 -98.3889 210° Southwest 178 205 17,700 360 Climbing Houston Center
02:21AM 29.5869 -98.4181 209° Southwest 186 214 18,000 180 Climbing Houston Center
02:22AM 29.5311 -98.4533 209° Southwest 223 257 18,100  Climbing Houston Center
02:23AM 29.4694 -98.4897 207° Southwest 240 276 18,100  Level Houston Center
02:24AM 29.4083 -98.5250 207° Southwest 246 283 18,100 -60 Level Houston Center
02:25AM 29.3458 -98.5639 208° Southwest 255 293 18,000 600 Descending Houston Center
02:26AM 29.2861 -98.5836 196° South 216 249 19,300 1,020 Climbing Houston Center
02:27AM 29.2331 -98.6000 195° South 196 226 20,100 600 Climbing Houston Center
02:28AM 29.1800 -98.6128 192° South 194 223 20,600 420 Climbing Houston Center
02:29AM 29.1283 -98.6250 192° South 192 221 21,000 420 Climbing Houston Center
02:30AM 29.0742 -98.6367 191° South 197 227 21,500 360 Climbing Houston Center
02:31AM 29.0208 -98.6500 192° South 195 224 21,800 240 Climbing Houston Center
02:32AM 28.9694 -98.6614 191° South 191 220 22,000 60 Climbing Houston Center
02:33AM 28.9156 -98.6739 191° South 198 228 22,000  Level Houston Center
02:34AM 28.8586 -98.6847 189° South 206 237 22,000  Level Houston Center
02:35AM 28.8017 -98.6983 192° South 208 239 22,000  Level Houston Center
02:36AM 28.7450 -98.7108 191° South 207 238 22,000  Level Houston Center
02:37AM 28.6856 -98.7239 191° South 214 246 22,000  Level Houston Center
02:38AM 28.6247 -98.7378 191° South 221 254 22,000  Level Houston Center
02:39AM 28.5667 -98.7525 193° South 214 246 22,000  Level Houston Center
02:40AM 28.5075 -98.7686 193° South 217 250 22,000  Level Houston Center
02:41AM 28.4481 -98.7806 190° South 216 249 22,000  Level Houston Center
02:42AM 28.3878 -98.7903 188° South 217 250 22,000  Level Houston Center
02:43AM 28.3281 -98.8017 190° South 218 251 22,000  Level Houston Center
02:44AM 28.2681 -98.8147 191° South 219 252 22,000  Level Houston Center
02:45AM 28.2089 -98.8286 192° South 218 251 22,000  Level Houston Center
02:46AM 28.1475 -98.8444 193° South 224 258 22,000  Level Houston Center
02:47AM 28.0875 -98.8569 190° South 221 254 22,000 -60 Level Houston Center
02:48AM 28.0269 -98.8697 191° South 221 254 21,900 -60 Descending Houston Center
02:49AM 27.9653 -98.8814 189° South 223 257 21,900  Level Houston Center
02:50AM 27.9050 -98.8939 190° South 221 254 22,000  Climbing Houston Center
02:51AM 27.8447 -98.9067 191° South 220 253 22,000  Level Houston Center
02:52AM 27.7839 -98.9192 190° South 222 255 22,000  Level Houston Center
02:53AM 27.7225 -98.9306 189° South 223 257 22,000  Level Houston Center
02:54AM 27.6617 -98.9417 189° South 222 255 22,000  Level Houston Center
02:55AM 27.6011 -98.9525 189° South 221 254 22,000  Level Houston Center
02:56AM 27.5411 -98.9644 190° South 221 254 22,000  Level Houston Center
02:57AM 27.4806 -98.9758 189° South 229 264 22,000  Level Houston Center
02:58AM 27.4197 -98.9822 185° South 228 262 22,000  Level Houston Center
02:59AM 27.3572 -98.9892 186° South 226 260 22,000  Level Houston Center
03:00AM 27.2958 -98.9958 186° South 224 258 22,000  Level Houston Center
03:01AM 27.2356 -99.0019 185° South 219 252 22,000  Level Houston Center
03:02AM 27.1756 -99.0083 185° South 218 251 22,000 -60 Level Houston Center
03:03AM 27.1156 -99.0158 186° South 216 249 21,900 -60 Descending Houston Center
03:04AM 27.0558 -99.0231 186° South 217 250 21,900  Level Houston Center
03:05AM 26.9958 -99.0303 186° South 216 249 22,000  Climbing Houston Center
03:06AM 26.9353 -99.0353 184° South 217 250 22,000 -60 Level Houston Center
03:07AM 26.8756 -99.0400 184° South 217 250 21,900 -60 Descending Houston Center
03:08AM 26.8156 -99.0436 183° South 216 249 21,900  Level Houston Center
03:09AM 26.7553 -99.0472 183° South 216 249 22,000  Climbing Houston Center
03:10AM 26.6961 -99.0483 181° South 214 246 22,000  Level Houston Center
03:11AM 26.6350 -99.0486 180° South 217 250 22,000  Level Houston Center
03:12AM 26.5747 -99.0517 187° South 217 250 22,000  Level Houston Center
03:13AM 26.5678 -99.0576 187° South  Level FlightAware Approximate
03:13AM 26.5017 -99.0556 183° South 217 250 22,100  Level Houston Center
03:15AM 26.4377 -99.0764 196° South  Level FlightAware Approximate
03:16AM 26.3181 -99.0686 186° South 220 253 22,000  Level Houston Center
03:17AM 26.2572 -99.0700 181° South 219 252 22,000  Level Houston Center
03:18AM 26.1958 -99.0733 183° South 220 253 22,000  Level Houston Center
03:20AM 26.1297 -99.0822 187° South  Level FlightAware Approximate
03:22AM 25.9998 -99.1314 186° South  Level FlightAware Approximate
03:27AM 25.6957 -99.1398 187° South  Level FlightAware Approximate
03:28AM 25.6336 -99.1481 187° South  Level FlightAware Approximate
03:29AM 25.5716 -99.1563 187° South  Level FlightAware Approximate
03:30AM 25.5096 -99.1645 187° South  Level FlightAware Approximate
03:31AM 25.4476 -99.1726 187° South  Level FlightAware Approximate
03:32AM 25.3856 -99.1808 187° South  Level FlightAware Approximate
03:33AM 25.3236 -99.1890 187° South  Level FlightAware Approximate
03:34AM 25.2616 -99.1971 187° South  Level FlightAware Approximate
03:35AM 25.1996 -99.2053 187° South  Level FlightAware Approximate
03:36AM 25.1376 -99.2134 187° South  Level FlightAware Approximate
03:37AM 25.0756 -99.2215 187° South  Level FlightAware Approximate
03:38AM 25.0135 -99.2297 187° South  Level FlightAware Approximate
03:39AM 24.9515 -99.2378 187° South  Level FlightAware Approximate
03:40AM 24.8895 -99.2459 187° South  Level FlightAware Approximate
03:41AM 24.8275 -99.2540 187° South  Level FlightAware Approximate
03:42AM 24.7655 -99.2621 187° South  Level FlightAware Approximate
03:43AM 24.7035 -99.2702 187° South  Level FlightAware Approximate
03:44AM 24.6415 -99.2782 187° South  Level FlightAware Approximate
03:45AM 24.5795 -99.2863 187° South  Level FlightAware Approximate
03:46AM 24.5174 -99.2944 187° South  Level FlightAware Approximate
03:47AM 24.4554 -99.3024 187° South  Level FlightAware Approximate
03:48AM 24.3934 -99.3105 187° South  Level FlightAware Approximate
03:49AM 24.3314 -99.3185 187° South  Level FlightAware Approximate
03:50AM 24.2694 -99.3265 187° South  Level FlightAware Approximate
03:51AM 24.2069 -99.3345 186° South  Level FlightAware Approximate
03:52AM 24.1448 -99.3417 186° South  Level FlightAware Approximate
03:53AM 24.0828 -99.3489 186° South  Level FlightAware Approximate
03:54AM 24.0207 -99.3561 186° South  Level FlightAware Approximate
03:55AM 23.9585 -99.3633 186° South  Level FlightAware Approximate
03:56AM 23.8965 -99.3704 186° South  Level FlightAware Approximate
03:57AM 23.8344 -99.3776 186° South  Level FlightAware Approximate
03:58AM 23.7722 -99.3848 186° South  Level FlightAware Approximate
03:59AM 23.7101 -99.3919 186° South  Level FlightAware Approximate
04:00AM 23.6481 -99.3991 186° South  Level FlightAware Approximate
04:01AM 23.5860 -99.4062 186° South  Level FlightAware Approximate
04:02AM 23.5238 -99.4134 186° South  Level FlightAware Approximate
04:03AM 23.4618 -99.4205 186° South  Level FlightAware Approximate
04:04AM 23.3997 -99.4276 186° South  Level FlightAware Approximate
04:05AM 23.3375 -99.4349 187° South  Level FlightAware Approximate
04:06AM 23.2755 -99.4427 187° South  Level FlightAware Approximate
04:07AM 23.2135 -99.4505 187° South  Level FlightAware Approximate
04:08AM 23.1514 -99.4583 187° South  Level FlightAware Approximate
04:09AM 23.0894 -99.4661 187° South  Level FlightAware Approximate
04:10AM 23.0274 -99.4739 187° South  Level FlightAware Approximate
04:11AM 22.9653 -99.4817 187° South  Level FlightAware Approximate
04:12AM 22.9033 -99.4895 187° South  Level FlightAware Approximate
04:13AM 22.8413 -99.4973 187° South  Level FlightAware Approximate
04:14AM 22.7792 -99.5050 187° South  Level FlightAware Approximate
04:15AM 22.7172 -99.5128 187° South  Level FlightAware Approximate
04:16AM 22.6551 -99.5205 187° South  Level FlightAware Approximate
04:17AM 22.5931 -99.5283 187° South  Level FlightAware Approximate
04:18AM 22.5311 -99.5360 187° South  Level FlightAware Approximate
04:19AM 22.4690 -99.5437 187° South  Level FlightAware Approximate
04:20AM 22.4070 -99.5514 187° South  Level FlightAware Approximate
04:21AM 22.3449 -99.5591 187° South  Level FlightAware Approximate
04:22AM 22.2829 -99.5668 187° South  Level FlightAware Approximate
04:23AM 22.2209 -99.5745 187° South  Level FlightAware Approximate
04:24AM 22.1588 -99.5822 187° South  Level FlightAware Approximate
04:25AM 22.0988 -99.6004 197° South  Level FlightAware Approximate
04:26AM 22.0392 -99.6203 197° South  Level FlightAware Approximate
04:27AM 21.9795 -99.6402 197° South  Level FlightAware Approximate
04:28AM 21.9205 -99.6623 201° Southwest  Level FlightAware Approximate
04:29AM 21.8623 -99.6866 201° Southwest  Level FlightAware Approximate
04:30AM 21.8041 -99.7108 201° Southwest  Level FlightAware Approximate
04:31AM 21.7458 -99.7350 200° South  Level FlightAware Approximate
04:32AM 21.6871 -99.7580 200° South  Level FlightAware Approximate
04:33AM 21.6285 -99.7810 200° South  Level FlightAware Approximate
04:34AM 21.5698 -99.8040 200° South  Level FlightAware Approximate
04:35AM 21.5111 -99.8270 200° South  Level FlightAware Approximate
04:36AM 21.4524 -99.8499 200° South  Level FlightAware Approximate
04:37AM 21.3937 -99.8729 200° South  Level FlightAware Approximate
04:38AM 21.3350 -99.8958 200° South  Level FlightAware Approximate
04:39AM 21.2763 -99.9187 200° South  Level FlightAware Approximate
04:40AM 21.2176 -99.9415 200° South  Level FlightAware Approximate
04:41AM 21.1590 -99.9644 200° South  Level FlightAware Approximate
04:42AM 21.1003 -99.9872 200° South  Level FlightAware Approximate
04:43AM 21.0415 -100.0101 200° South  Level FlightAware Approximate
04:44AM 20.9828 -100.0329 200° South  Level FlightAware Approximate
04:45AM 20.9241 -100.0556 200° South  Level FlightAware Approximate
04:46AM 20.8654 -100.0784 200° South  Level FlightAware Approximate
04:47AM 20.8067 -100.1012 200° South  Level FlightAware Approximate
04:48AM 20.7483 -100.1248 203° Southwest  Level FlightAware Approximate
04:49AM 20.6907 -100.1505 203° Southwest  Level FlightAware Approximate
04:50AM 20.6330 -100.1761 203° Southwest  Level FlightAware Approximate
04:51AM 20.5748 -100.1700 154° Southeast  Level FlightAware Approximate
04:52AM 20.5189 -100.1403 154° Southeast  Level FlightAware Approximate
04:53AM 20.4629 -100.1107 154° Southeast  Level FlightAware Approximate
04:54AM 20.4070 -100.0811 154° Southeast  Level FlightAware Approximate
04:55AM 20.3510 -100.0515 154° Southeast  Level FlightAware Approximate
04:56AM 20.2949 -100.0224 155° Southeast  Level FlightAware Approximate
04:57AM 20.2383 -99.9942 155° Southeast  Level FlightAware Approximate
04:58AM 20.1818 -99.9660 158° South  Level FlightAware Approximate
04:59AM 20.1238 -99.9412 158° South  Level FlightAware Approximate
05:00AM 20.0659 -99.9163 157° South  Level FlightAware Approximate
05:01AM 20.0083 -99.8907 157° South  Level FlightAware Approximate
05:02AM 19.9507 -99.8651 157° South  Level FlightAware Approximate
05:03AM 19.8935 -99.8384 155° Southeast  Level FlightAware Approximate
05:04AM 19.8370 -99.8101 155° Southeast  Level FlightAware Approximate
05:05AM 19.7805 -99.7819 155° Southeast  Level FlightAware Approximate
05:06AM 19.7240 -99.7536 155° Southeast  Level FlightAware Approximate
05:07AM 19.6675 -99.7254 155° Southeast  Level FlightAware Approximate
05:08AM 19.6135 -99.6923 148° Southeast  Level FlightAware Approximate
05:09AM 19.5576 -99.6630 159° South  Level FlightAware Approximate
05:10AM 19.4992 -99.6397 159° South  Level FlightAware Approximate
05:11AM 19.4421 -99.6127 155° Southeast  Level FlightAware Approximate
05:12AM 19.3857 -99.5845 155° Southeast  Level FlightAware Approximate
05:13AM 19.3500 -99.5667 North  Level FlightAware Approximate
05:14AM 19.3371 -99.5660 North  Level Estimated
05:15AM 19.3371 -99.5660 North  Level Estimated
05:16AM 19.3371 -99.5660 North  Level Estimated
05:17AM 19.3371 -99.5660 North  Level Estimated
05:18AM 19.3371 -99.5660 North  Level Estimated
05:19AM 19.3371 -99.5660 North  Level Estimated
05:20AM 19.3371 -99.5660 North  Level Estimated
05:21AM 19.3371 -99.5660 North  Level Estimated
05:22AM 19.3371 -99.5660 North  Level Estimated
05:23AM 19.3371 -99.5660 North  Level Estimated